sensor_id;sensor_type;location;lat;lon;timestamp;P1;durP1;ratioP1;P2;durP2;ratioP2
11431;SDS011;5772;50.940;6.782;2023-03-19T00:00:24;23.47;;;22.17;;
11431;SDS011;5772;50.940;6.782;2023-03-19T00:02:50;23.07;;;21.97;;
11431;SDS011;5772;50.940;6.782;2023-03-19T00:05:15;23.40;;;21.87;;
11431;SDS011;5772;50.940;6.782;2023-03-19T00:07:41;23.43;;;22.07;;
11431;SDS011;5772;50.940;6.782;2023-03-19T00:10:06;25.43;;;24.10;;
11431;SDS011;5772;50.940;6.782;2023-03-19T00:12:32;25.27;;;23.80;;
11431;SDS011;5772;50.940;6.782;2023-03-19T00:14:59;23.70;;;22.60;;
11431;SDS011;5772;50.940;6.782;2023-03-19T00:17:24;24.80;;;23.70;;
11431;SDS011;5772;50.940;6.782;2023-03-19T00:19:49;22.23;;;20.80;;
11431;SDS011;5772;50.940;6.782;2023-03-19T00:22:15;22.80;;;21.50;;
11431;SDS011;5772;50.940;6.782;2023-03-19T00:24:40;21.63;;;20.53;;
11431;SDS011;5772;50.940;6.782;2023-03-19T00:27:06;25.07;;;23.67;;
11431;SDS011;5772;50.940;6.782;2023-03-19T00:29:31;26.70;;;25.27;;
11431;SDS011;5772;50.940;6.782;2023-03-19T00:31:58;25.20;;;24.10;;
11431;SDS011;5772;50.940;6.782;2023-03-19T00:34:23;26.17;;;25.07;;
11431;SDS011;5772;50.940;6.782;2023-03-19T00:36:49;24.93;;;23.60;;
11431;SDS011;5772;50.940;6.782;2023-03-19T00:39:14;25.17;;;23.67;;
11431;SDS011;5772;50.940;6.782;2023-03-19T00:41:39;26.07;;;24.80;;
11431;SDS011;5772;50.940;6.782;2023-03-19T00:44:05;25.30;;;24.20;;
11431;SDS011;5772;50.940;6.782;2023-03-19T00:46:30;23.80;;;22.77;;
11431;SDS011;5772;50.940;6.782;2023-03-19T00:48:57;24.83;;;23.67;;
11431;SDS011;5772;50.940;6.782;2023-03-19T00:51:23;24.87;;;23.70;;
11431;SDS011;5772;50.940;6.782;2023-03-19T00:53:49;25.13;;;23.57;;
11431;SDS011;5772;50.940;6.782;2023-03-19T00:56:15;24.23;;;22.93;;
11431;SDS011;5772;50.940;6.782;2023-03-19T00:58:40;25.27;;;24.07;;
11431;SDS011;5772;50.940;6.782;2023-03-19T01:01:06;25.03;;;23.73;;
11431;SDS011;5772;50.940;6.782;2023-03-19T01:03:31;24.77;;;23.43;;
11431;SDS011;5772;50.940;6.782;2023-03-19T01:05:58;23.77;;;22.57;;
11431;SDS011;5772;50.940;6.782;2023-03-19T01:08:23;24.90;;;23.80;;
11431;SDS011;5772;50.940;6.782;2023-03-19T01:10:49;23.47;;;22.57;;
11431;SDS011;5772;50.940;6.782;2023-03-19T01:13:14;24.70;;;23.70;;
11431;SDS011;5772;50.940;6.782;2023-03-19T01:15:41;23.33;;;22.33;;
11431;SDS011;5772;50.940;6.782;2023-03-19T01:18:07;24.77;;;23.33;;
11431;SDS011;5772;50.940;6.782;2023-03-19T01:20:33;24.47;;;23.37;;
11431;SDS011;5772;50.940;6.782;2023-03-19T01:23:00;23.67;;;22.67;;
11431;SDS011;5772;50.940;6.782;2023-03-19T01:25:25;24.10;;;23.00;;
11431;SDS011;5772;50.940;6.782;2023-03-19T01:27:51;24.30;;;23.10;;
11431;SDS011;5772;50.940;6.782;2023-03-19T01:30:17;25.20;;;24.13;;
11431;SDS011;5772;50.940;6.782;2023-03-19T01:32:42;24.97;;;23.80;;
11431;SDS011;5772;50.940;6.782;2023-03-19T01:35:08;23.70;;;22.70;;
11431;SDS011;5772;50.940;6.782;2023-03-19T01:37:34;24.70;;;23.30;;
11431;SDS011;5772;50.940;6.782;2023-03-19T01:40:01;22.80;;;21.90;;
11431;SDS011;5772;50.940;6.782;2023-03-19T01:42:26;24.33;;;23.27;;
11431;SDS011;5772;50.940;6.782;2023-03-19T01:44:52;25.03;;;23.93;;
11431;SDS011;5772;50.940;6.782;2023-03-19T01:47:18;24.90;;;23.80;;
11431;SDS011;5772;50.940;6.782;2023-03-19T01:49:50;25.30;;;24.20;;
11431;SDS011;5772;50.940;6.782;2023-03-19T01:52:17;24.17;;;22.97;;
11431;SDS011;5772;50.940;6.782;2023-03-19T01:54:42;26.03;;;24.73;;
11431;SDS011;5772;50.940;6.782;2023-03-19T01:57:10;26.30;;;25.13;;
11431;SDS011;5772;50.940;6.782;2023-03-19T01:59:37;27.10;;;25.80;;
11431;SDS011;5772;50.940;6.782;2023-03-19T02:02:05;26.57;;;25.00;;
11431;SDS011;5772;50.940;6.782;2023-03-19T02:04:32;26.80;;;25.53;;
11431;SDS011;5772;50.940;6.782;2023-03-19T02:06:59;26.37;;;25.17;;
11431;SDS011;5772;50.940;6.782;2023-03-19T02:09:25;25.37;;;24.27;;
11431;SDS011;5772;50.940;6.782;2023-03-19T02:11:51;25.77;;;24.47;;
11431;SDS011;5772;50.940;6.782;2023-03-19T02:14:19;26.63;;;25.53;;
11431;SDS011;5772;50.940;6.782;2023-03-19T02:16:44;25.77;;;24.53;;
11431;SDS011;5772;50.940;6.782;2023-03-19T02:19:11;24.27;;;23.23;;
11431;SDS011;5772;50.940;6.782;2023-03-19T02:21:40;25.07;;;24.00;;
11431;SDS011;5772;50.940;6.782;2023-03-19T02:24:05;23.73;;;22.63;;
11431;SDS011;5772;50.940;6.782;2023-03-19T02:26:37;24.47;;;23.23;;
11431;SDS011;5772;50.940;6.782;2023-03-19T02:29:03;23.00;;;22.00;;
11431;SDS011;5772;50.940;6.782;2023-03-19T02:31:29;23.13;;;22.13;;
11431;SDS011;5772;50.940;6.782;2023-03-19T02:33:58;25.43;;;24.33;;
11431;SDS011;5772;50.940;6.782;2023-03-19T02:36:24;24.70;;;23.27;;
11431;SDS011;5772;50.940;6.782;2023-03-19T02:38:51;23.73;;;22.50;;
11431;SDS011;5772;50.940;6.782;2023-03-19T02:41:17;22.70;;;21.80;;
11431;SDS011;5772;50.940;6.782;2023-03-19T02:43:44;22.60;;;21.60;;
11431;SDS011;5772;50.940;6.782;2023-03-19T02:46:10;21.40;;;20.50;;
11431;SDS011;5772;50.940;6.782;2023-03-19T02:48:37;22.27;;;21.17;;
11431;SDS011;5772;50.940;6.782;2023-03-19T02:51:02;22.57;;;21.50;;
11431;SDS011;5772;50.940;6.782;2023-03-19T02:53:27;23.57;;;22.57;;
11431;SDS011;5772;50.940;6.782;2023-03-19T02:55:53;21.33;;;20.43;;
11431;SDS011;5772;50.940;6.782;2023-03-19T02:58:18;23.17;;;22.17;;
11431;SDS011;5772;50.940;6.782;2023-03-19T03:00:45;22.23;;;21.33;;
11431;SDS011;5772;50.940;6.782;2023-03-19T03:03:11;22.10;;;21.00;;
11431;SDS011;5772;50.940;6.782;2023-03-19T03:05:37;23.67;;;22.43;;
11431;SDS011;5772;50.940;6.782;2023-03-19T03:08:02;21.90;;;20.70;;
11431;SDS011;5772;50.940;6.782;2023-03-19T03:10:28;22.20;;;21.10;;
11431;SDS011;5772;50.940;6.782;2023-03-19T03:12:53;21.27;;;20.37;;
11431;SDS011;5772;50.940;6.782;2023-03-19T03:15:19;21.53;;;20.60;;
11431;SDS011;5772;50.940;6.782;2023-03-19T03:17:46;22.27;;;21.20;;
11431;SDS011;5772;50.940;6.782;2023-03-19T03:20:11;20.57;;;19.77;;
11431;SDS011;5772;50.940;6.782;2023-03-19T03:22:38;21.73;;;20.73;;
11431;SDS011;5772;50.940;6.782;2023-03-19T03:25:04;21.10;;;20.20;;
11431;SDS011;5772;50.940;6.782;2023-03-19T03:27:30;21.67;;;20.67;;
11431;SDS011;5772;50.940;6.782;2023-03-19T03:29:57;21.73;;;20.73;;
11431;SDS011;5772;50.940;6.782;2023-03-19T03:32:23;21.10;;;19.80;;
11431;SDS011;5772;50.940;6.782;2023-03-19T03:34:50;21.03;;;20.10;;
11431;SDS011;5772;50.940;6.782;2023-03-19T03:37:16;21.00;;;20.20;;
11431;SDS011;5772;50.940;6.782;2023-03-19T03:39:41;21.87;;;20.97;;
11431;SDS011;5772;50.940;6.782;2023-03-19T03:42:06;21.80;;;20.90;;
11431;SDS011;5772;50.940;6.782;2023-03-19T03:44:32;21.60;;;20.70;;
11431;SDS011;5772;50.940;6.782;2023-03-19T03:46:57;21.83;;;20.90;;
11431;SDS011;5772;50.940;6.782;2023-03-19T03:49:23;21.70;;;20.73;;
11431;SDS011;5772;50.940;6.782;2023-03-19T03:51:50;20.57;;;19.67;;
11431;SDS011;5772;50.940;6.782;2023-03-19T03:54:15;21.80;;;20.90;;
11431;SDS011;5772;50.940;6.782;2023-03-19T03:56:40;22.23;;;21.33;;
11431;SDS011;5772;50.940;6.782;2023-03-19T03:59:06;21.90;;;21.00;;
11431;SDS011;5772;50.940;6.782;2023-03-19T04:01:31;22.33;;;21.33;;
11431;SDS011;5772;50.940;6.782;2023-03-19T04:03:57;21.73;;;20.83;;
11431;SDS011;5772;50.940;6.782;2023-03-19T04:06:22;21.77;;;20.67;;
11431;SDS011;5772;50.940;6.782;2023-03-19T04:08:50;21.67;;;20.77;;
11431;SDS011;5772;50.940;6.782;2023-03-19T04:11:15;22.20;;;21.23;;
11431;SDS011;5772;50.940;6.782;2023-03-19T04:13:41;21.87;;;20.87;;
11431;SDS011;5772;50.940;6.782;2023-03-19T04:16:07;22.30;;;21.30;;
11431;SDS011;5772;50.940;6.782;2023-03-19T04:18:33;22.60;;;21.50;;
11431;SDS011;5772;50.940;6.782;2023-03-19T04:20:58;23.03;;;22.03;;
11431;SDS011;5772;50.940;6.782;2023-03-19T04:23:24;22.37;;;21.23;;
11431;SDS011;5772;50.940;6.782;2023-03-19T04:25:51;22.83;;;21.83;;
11431;SDS011;5772;50.940;6.782;2023-03-19T04:28:16;23.23;;;22.23;;
11431;SDS011;5772;50.940;6.782;2023-03-19T04:30:41;21.40;;;20.57;;
11431;SDS011;5772;50.940;6.782;2023-03-19T04:33:07;21.40;;;20.50;;
11431;SDS011;5772;50.940;6.782;2023-03-19T04:35:32;21.67;;;20.77;;
11431;SDS011;5772;50.940;6.782;2023-03-19T04:37:58;21.30;;;20.30;;
11431;SDS011;5772;50.940;6.782;2023-03-19T04:40:23;21.23;;;20.23;;
11431;SDS011;5772;50.940;6.782;2023-03-19T04:42:50;20.83;;;20.03;;
11431;SDS011;5772;50.940;6.782;2023-03-19T04:45:15;22.90;;;21.53;;
11431;SDS011;5772;50.940;6.782;2023-03-19T04:47:42;21.83;;;20.90;;
11431;SDS011;5772;50.940;6.782;2023-03-19T04:50:07;20.80;;;19.90;;
11431;SDS011;5772;50.940;6.782;2023-03-19T04:52:34;21.30;;;20.40;;
11431;SDS011;5772;50.940;6.782;2023-03-19T04:54:59;22.47;;;21.47;;
11431;SDS011;5772;50.940;6.782;2023-03-19T04:57:25;21.43;;;20.47;;
11431;SDS011;5772;50.940;6.782;2023-03-19T04:59:51;20.83;;;20.03;;
11431;SDS011;5772;50.940;6.782;2023-03-19T05:02:17;20.73;;;19.83;;
11431;SDS011;5772;50.940;6.782;2023-03-19T05:04:42;21.40;;;20.50;;
11431;SDS011;5772;50.940;6.782;2023-03-19T05:07:07;20.10;;;19.30;;
11431;SDS011;5772;50.940;6.782;2023-03-19T05:09:33;20.40;;;19.50;;
11431;SDS011;5772;50.940;6.782;2023-03-19T05:11:58;19.87;;;19.07;;
11431;SDS011;5772;50.940;6.782;2023-03-19T05:14:23;20.90;;;20.00;;
11431;SDS011;5772;50.940;6.782;2023-03-19T05:16:50;21.10;;;20.20;;
11431;SDS011;5772;50.940;6.782;2023-03-19T05:19:16;21.10;;;20.23;;
11431;SDS011;5772;50.940;6.782;2023-03-19T05:21:41;20.50;;;19.60;;
11431;SDS011;5772;50.940;6.782;2023-03-19T05:24:06;20.07;;;19.23;;
11431;SDS011;5772;50.940;6.782;2023-03-19T05:26:32;20.83;;;19.90;;
11431;SDS011;5772;50.940;6.782;2023-03-19T05:28:57;20.77;;;19.87;;
11431;SDS011;5772;50.940;6.782;2023-03-19T05:31:23;21.47;;;20.40;;
11431;SDS011;5772;50.940;6.782;2023-03-19T05:33:49;20.73;;;19.93;;
11431;SDS011;5772;50.940;6.782;2023-03-19T05:36:15;21.17;;;20.37;;
11431;SDS011;5772;50.940;6.782;2023-03-19T05:38:40;20.30;;;19.47;;
11431;SDS011;5772;50.940;6.782;2023-03-19T05:41:06;22.07;;;21.07;;
11431;SDS011;5772;50.940;6.782;2023-03-19T05:43:31;20.87;;;19.97;;
11431;SDS011;5772;50.940;6.782;2023-03-19T05:45:57;20.47;;;19.50;;
11431;SDS011;5772;50.940;6.782;2023-03-19T05:48:22;20.27;;;19.47;;
11431;SDS011;5772;50.940;6.782;2023-03-19T05:50:49;20.40;;;19.60;;
11431;SDS011;5772;50.940;6.782;2023-03-19T05:53:14;21.13;;;20.20;;
11431;SDS011;5772;50.940;6.782;2023-03-19T05:55:39;22.03;;;21.03;;
11431;SDS011;5772;50.940;6.782;2023-03-19T05:58:05;21.97;;;21.07;;
11431;SDS011;5772;50.940;6.782;2023-03-19T06:00:30;21.67;;;20.73;;
11431;SDS011;5772;50.940;6.782;2023-03-19T06:02:56;20.90;;;20.00;;
11431;SDS011;5772;50.940;6.782;2023-03-19T06:05:21;21.43;;;20.53;;
11431;SDS011;5772;50.940;6.782;2023-03-19T06:07:48;21.70;;;20.70;;
11431;SDS011;5772;50.940;6.782;2023-03-19T06:10:13;20.40;;;19.60;;
11431;SDS011;5772;50.940;6.782;2023-03-19T06:12:38;20.67;;;19.87;;
11431;SDS011;5772;50.940;6.782;2023-03-19T06:15:04;21.07;;;20.27;;
11431;SDS011;5772;50.940;6.782;2023-03-19T06:17:30;20.70;;;19.80;;
11431;SDS011;5772;50.940;6.782;2023-03-19T06:19:55;22.63;;;21.50;;
11431;SDS011;5772;50.940;6.782;2023-03-19T06:22:21;22.13;;;21.17;;
11431;SDS011;5772;50.940;6.782;2023-03-19T06:24:47;22.50;;;21.40;;
11431;SDS011;5772;50.940;6.782;2023-03-19T06:27:13;21.80;;;20.90;;
11431;SDS011;5772;50.940;6.782;2023-03-19T06:29:38;22.60;;;21.50;;
11431;SDS011;5772;50.940;6.782;2023-03-19T06:32:04;22.50;;;21.50;;
11431;SDS011;5772;50.940;6.782;2023-03-19T06:34:29;22.00;;;21.10;;
11431;SDS011;5772;50.940;6.782;2023-03-19T06:36:55;21.40;;;20.40;;
11431;SDS011;5772;50.940;6.782;2023-03-19T06:39:20;21.23;;;20.33;;
11431;SDS011;5772;50.940;6.782;2023-03-19T06:41:47;21.40;;;20.43;;
11431;SDS011;5772;50.940;6.782;2023-03-19T06:44:12;20.93;;;20.13;;
11431;SDS011;5772;50.940;6.782;2023-03-19T06:46:38;22.43;;;21.43;;
11431;SDS011;5772;50.940;6.782;2023-03-19T06:49:03;22.30;;;21.30;;
11431;SDS011;5772;50.940;6.782;2023-03-19T06:51:28;22.23;;;21.30;;
11431;SDS011;5772;50.940;6.782;2023-03-19T06:53:54;22.77;;;21.77;;
11431;SDS011;5772;50.940;6.782;2023-03-19T06:56:19;22.87;;;21.90;;
11431;SDS011;5772;50.940;6.782;2023-03-19T06:58:46;22.77;;;21.77;;
11431;SDS011;5772;50.940;6.782;2023-03-19T07:01:11;21.97;;;21.07;;
11431;SDS011;5772;50.940;6.782;2023-03-19T07:03:36;21.30;;;20.40;;
11431;SDS011;5772;50.940;6.782;2023-03-19T07:06:02;21.80;;;20.90;;
11431;SDS011;5772;50.940;6.782;2023-03-19T07:08:27;21.43;;;20.53;;
11431;SDS011;5772;50.940;6.782;2023-03-19T07:10:53;21.53;;;20.63;;
11431;SDS011;5772;50.940;6.782;2023-03-19T07:13:18;23.20;;;22.20;;
11431;SDS011;5772;50.940;6.782;2023-03-19T07:15:45;22.80;;;21.80;;
11431;SDS011;5772;50.940;6.782;2023-03-19T07:18:11;22.23;;;21.33;;
11431;SDS011;5772;50.940;6.782;2023-03-19T07:20:36;22.10;;;21.03;;
11431;SDS011;5772;50.940;6.782;2023-03-19T07:23:01;23.80;;;22.70;;
11431;SDS011;5772;50.940;6.782;2023-03-19T07:25:27;22.43;;;21.43;;
11431;SDS011;5772;50.940;6.782;2023-03-19T07:27:52;23.03;;;22.03;;
11431;SDS011;5772;50.940;6.782;2023-03-19T07:30:18;21.63;;;20.73;;
11431;SDS011;5772;50.940;6.782;2023-03-19T07:32:44;22.30;;;21.40;;
11431;SDS011;5772;50.940;6.782;2023-03-19T07:35:10;22.70;;;21.70;;
11431;SDS011;5772;50.940;6.782;2023-03-19T07:37:35;25.17;;;24.07;;
11431;SDS011;5772;50.940;6.782;2023-03-19T07:40:01;22.93;;;21.97;;
11431;SDS011;5772;50.940;6.782;2023-03-19T07:42:26;23.50;;;22.20;;
11431;SDS011;5772;50.940;6.782;2023-03-19T07:44:52;23.20;;;22.10;;
11431;SDS011;5772;50.940;6.782;2023-03-19T07:47:17;22.53;;;21.53;;
11431;SDS011;5772;50.940;6.782;2023-03-19T07:49:44;21.80;;;20.90;;
11431;SDS011;5772;50.940;6.782;2023-03-19T07:52:09;21.80;;;20.80;;
11431;SDS011;5772;50.940;6.782;2023-03-19T07:54:35;27.20;;;25.90;;
11431;SDS011;5772;50.940;6.782;2023-03-19T07:57:00;28.20;;;27.10;;
11431;SDS011;5772;50.940;6.782;2023-03-19T07:59:25;32.93;;;31.63;;
11431;SDS011;5772;50.940;6.782;2023-03-19T08:01:51;28.13;;;26.97;;
11431;SDS011;5772;50.940;6.782;2023-03-19T08:04:16;26.90;;;25.80;;
11431;SDS011;5772;50.940;6.782;2023-03-19T08:06:43;27.13;;;26.03;;
11431;SDS011;5772;50.940;6.782;2023-03-19T08:09:08;26.93;;;25.83;;
11431;SDS011;5772;50.940;6.782;2023-03-19T08:11:34;26.63;;;25.43;;
11431;SDS011;5772;50.940;6.782;2023-03-19T08:13:59;25.13;;;24.07;;
11431;SDS011;5772;50.940;6.782;2023-03-19T08:16:25;23.83;;;22.67;;
11431;SDS011;5772;50.940;6.782;2023-03-19T08:18:50;22.73;;;21.73;;
11431;SDS011;5772;50.940;6.782;2023-03-19T08:21:15;22.10;;;21.20;;
11431;SDS011;5772;50.940;6.782;2023-03-19T08:23:42;22.60;;;21.63;;
11431;SDS011;5772;50.940;6.782;2023-03-19T08:26:08;20.93;;;20.03;;
11431;SDS011;5772;50.940;6.782;2023-03-19T08:28:33;21.90;;;20.97;;
11431;SDS011;5772;50.940;6.782;2023-03-19T08:31:04;21.27;;;20.37;;
11431;SDS011;5772;50.940;6.782;2023-03-19T08:33:30;22.17;;;21.23;;
11431;SDS011;5772;50.940;6.782;2023-03-19T08:36:02;21.20;;;20.30;;
11431;SDS011;5772;50.940;6.782;2023-03-19T08:38:28;21.77;;;20.87;;
11431;SDS011;5772;50.940;6.782;2023-03-19T08:40:56;21.87;;;20.97;;
11431;SDS011;5772;50.940;6.782;2023-03-19T08:43:21;22.17;;;21.27;;
11431;SDS011;5772;50.940;6.782;2023-03-19T08:45:46;21.93;;;20.93;;
11431;SDS011;5772;50.940;6.782;2023-03-19T08:48:12;22.77;;;21.77;;
11431;SDS011;5772;50.940;6.782;2023-03-19T08:50:38;24.07;;;22.90;;
11431;SDS011;5772;50.940;6.782;2023-03-19T08:53:03;22.47;;;21.30;;
11431;SDS011;5772;50.940;6.782;2023-03-19T08:55:28;23.33;;;21.93;;
11431;SDS011;5772;50.940;6.782;2023-03-19T08:57:55;23.53;;;22.47;;
11431;SDS011;5772;50.940;6.782;2023-03-19T09:00:21;22.60;;;21.50;;
11431;SDS011;5772;50.940;6.782;2023-03-19T09:02:46;22.57;;;21.57;;
11431;SDS011;5772;50.940;6.782;2023-03-19T09:05:11;21.90;;;20.80;;
11431;SDS011;5772;50.940;6.782;2023-03-19T09:07:37;23.73;;;22.70;;
11431;SDS011;5772;50.940;6.782;2023-03-19T09:10:02;24.70;;;23.27;;
11431;SDS011;5772;50.940;6.782;2023-03-19T09:12:28;22.93;;;21.93;;
11431;SDS011;5772;50.940;6.782;2023-03-19T09:14:55;23.13;;;22.13;;
11431;SDS011;5772;50.940;6.782;2023-03-19T09:17:20;21.73;;;20.83;;
11431;SDS011;5772;50.940;6.782;2023-03-19T09:19:45;22.60;;;21.67;;
11431;SDS011;5772;50.940;6.782;2023-03-19T09:22:11;20.70;;;19.80;;
11431;SDS011;5772;50.940;6.782;2023-03-19T09:24:36;20.40;;;19.47;;
11431;SDS011;5772;50.940;6.782;2023-03-19T09:27:02;19.00;;;18.20;;
11431;SDS011;5772;50.940;6.782;2023-03-19T09:29:27;21.87;;;20.87;;
11431;SDS011;5772;50.940;6.782;2023-03-19T09:31:54;22.20;;;21.23;;
11431;SDS011;5772;50.940;6.782;2023-03-19T09:34:19;22.17;;;20.97;;
11431;SDS011;5772;50.940;6.782;2023-03-19T09:36:45;20.10;;;19.20;;
11431;SDS011;5772;50.940;6.782;2023-03-19T09:39:10;21.13;;;20.17;;
11431;SDS011;5772;50.940;6.782;2023-03-19T09:41:38;21.40;;;20.40;;
11431;SDS011;5772;50.940;6.782;2023-03-19T09:44:09;20.10;;;19.20;;
11431;SDS011;5772;50.940;6.782;2023-03-19T09:46:37;22.07;;;21.07;;
11431;SDS011;5772;50.940;6.782;2023-03-19T09:49:11;19.33;;;18.53;;
11431;SDS011;5772;50.940;6.782;2023-03-19T09:51:42;20.93;;;20.03;;
11431;SDS011;5772;50.940;6.782;2023-03-19T09:54:12;22.67;;;21.47;;
11431;SDS011;5772;50.940;6.782;2023-03-19T09:56:57;23.40;;;22.40;;
11431;SDS011;5772;50.940;6.782;2023-03-19T09:59:23;24.60;;;23.50;;
11431;SDS011;5772;50.940;6.782;2023-03-19T10:01:52;26.03;;;24.90;;
11431;SDS011;5772;50.940;6.782;2023-03-19T10:07:06;25.43;;;24.33;;
11431;SDS011;5772;50.940;6.782;2023-03-19T10:09:45;21.70;;;20.80;;
11431;SDS011;5772;50.940;6.782;2023-03-19T10:12:20;19.33;;;18.47;;
11431;SDS011;5772;50.940;6.782;2023-03-19T10:14:54;22.93;;;21.93;;
11431;SDS011;5772;50.940;6.782;2023-03-19T10:17:26;22.90;;;21.80;;
11431;SDS011;5772;50.940;6.782;2023-03-19T10:19:56;20.40;;;19.30;;
11431;SDS011;5772;50.940;6.782;2023-03-19T10:22:24;24.70;;;23.70;;
11431;SDS011;5772;50.940;6.782;2023-03-19T10:24:52;19.97;;;19.17;;
11431;SDS011;5772;50.940;6.782;2023-03-19T10:27:21;20.37;;;19.47;;
11431;SDS011;5772;50.940;6.782;2023-03-19T10:29:50;20.87;;;19.87;;
11431;SDS011;5772;50.940;6.782;2023-03-19T10:32:16;20.07;;;19.23;;
11431;SDS011;5772;50.940;6.782;2023-03-19T10:34:43;20.80;;;19.90;;
11431;SDS011;5772;50.940;6.782;2023-03-19T10:37:14;26.47;;;25.33;;
11431;SDS011;5772;50.940;6.782;2023-03-19T10:39:41;31.93;;;30.63;;
11431;SDS011;5772;50.940;6.782;2023-03-19T10:42:12;22.60;;;21.60;;
11431;SDS011;5772;50.940;6.782;2023-03-19T10:44:46;23.53;;;22.53;;
11431;SDS011;5772;50.940;6.782;2023-03-19T10:47:14;21.40;;;20.50;;
11431;SDS011;5772;50.940;6.782;2023-03-19T10:49:40;24.40;;;23.40;;
11431;SDS011;5772;50.940;6.782;2023-03-19T10:52:06;20.77;;;19.97;;
11431;SDS011;5772;50.940;6.782;2023-03-19T10:54:43;19.73;;;18.93;;
11431;SDS011;5772;50.940;6.782;2023-03-19T10:57:18;20.00;;;19.20;;
11431;SDS011;5772;50.940;6.782;2023-03-19T10:59:45;16.58;;;15.95;;
11431;SDS011;5772;50.940;6.782;2023-03-19T11:02:14;17.23;;;16.52;;
11431;SDS011;5772;50.940;6.782;2023-03-19T11:04:41;16.17;;;15.57;;
11431;SDS011;5772;50.940;6.782;2023-03-19T11:07:08;16.92;;;16.00;;
11431;SDS011;5772;50.940;6.782;2023-03-19T11:09:37;19.30;;;18.55;;
11431;SDS011;5772;50.940;6.782;2023-03-19T11:12:06;24.30;;;23.15;;
11431;SDS011;5772;50.940;6.782;2023-03-19T11:14:33;18.83;;;18.13;;
11431;SDS011;5772;50.940;6.782;2023-03-19T11:17:02;18.83;;;18.03;;
11431;SDS011;5772;50.940;6.782;2023-03-19T11:19:30;30.37;;;29.17;;
11431;SDS011;5772;50.940;6.782;2023-03-19T11:22:00;20.80;;;20.00;;
11431;SDS011;5772;50.940;6.782;2023-03-19T11:24:30;19.87;;;19.07;;
11431;SDS011;5772;50.940;6.782;2023-03-19T11:26:57;30.87;;;29.53;;
11431;SDS011;5772;50.940;6.782;2023-03-19T11:29:22;27.80;;;26.70;;
11431;SDS011;5772;50.940;6.782;2023-03-19T11:31:51;21.97;;;21.07;;
11431;SDS011;5772;50.940;6.782;2023-03-19T11:34:25;19.27;;;18.53;;
11431;SDS011;5772;50.940;6.782;2023-03-19T11:36:55;18.40;;;17.70;;
11431;SDS011;5772;50.940;6.782;2023-03-19T11:39:25;18.63;;;17.90;;
11431;SDS011;5772;50.940;6.782;2023-03-19T11:41:55;18.80;;;18.00;;
11431;SDS011;5772;50.940;6.782;2023-03-19T11:44:28;19.10;;;18.30;;
11431;SDS011;5772;50.940;6.782;2023-03-19T11:46:58;20.40;;;19.50;;
11431;SDS011;5772;50.940;6.782;2023-03-19T11:52:15;20.63;;;19.73;;
11431;SDS011;5772;50.940;6.782;2023-03-19T11:54:44;24.20;;;23.30;;
11431;SDS011;5772;50.940;6.782;2023-03-19T11:57:21;23.27;;;22.37;;
11431;SDS011;5772;50.940;6.782;2023-03-19T11:59:56;22.90;;;22.00;;
11431;SDS011;5772;50.940;6.782;2023-03-19T12:05:26;14.95;;;14.35;;
11431;SDS011;5772;50.940;6.782;2023-03-19T12:08:02;16.83;;;16.20;;
11431;SDS011;5772;50.940;6.782;2023-03-19T12:10:39;16.17;;;15.48;;
11431;SDS011;5772;50.940;6.782;2023-03-19T12:13:13;16.30;;;15.70;;
11431;SDS011;5772;50.940;6.782;2023-03-19T12:15:47;18.10;;;17.40;;
11431;SDS011;5772;50.940;6.782;2023-03-19T12:18:21;19.55;;;18.77;;
11431;SDS011;5772;50.940;6.782;2023-03-19T12:20:51;21.00;;;20.20;;
11431;SDS011;5772;50.940;6.782;2023-03-19T12:23:26;21.55;;;20.65;;
11431;SDS011;5772;50.940;6.782;2023-03-19T12:26:00;22.60;;;21.73;;
11431;SDS011;5772;50.940;6.782;2023-03-19T12:28:28;26.33;;;25.23;;
11431;SDS011;5772;50.940;6.782;2023-03-19T12:31:03;28.70;;;27.60;;
11431;SDS011;5772;50.940;6.782;2023-03-19T12:33:47;24.27;;;23.30;;
11431;SDS011;5772;50.940;6.782;2023-03-19T12:36:18;24.33;;;23.37;;
11431;SDS011;5772;50.940;6.782;2023-03-19T12:38:47;20.00;;;19.20;;
11431;SDS011;5772;50.940;6.782;2023-03-19T12:41:13;20.87;;;20.07;;
11431;SDS011;5772;50.940;6.782;2023-03-19T12:43:45;21.70;;;20.90;;
11431;SDS011;5772;50.940;6.782;2023-03-19T12:46:16;20.20;;;19.40;;
11431;SDS011;5772;50.940;6.782;2023-03-19T12:48:43;19.23;;;18.43;;
11431;SDS011;5772;50.940;6.782;2023-03-19T12:51:12;20.00;;;19.20;;
11431;SDS011;5772;50.940;6.782;2023-03-19T12:53:42;18.50;;;17.80;;
11431;SDS011;5772;50.940;6.782;2023-03-19T12:56:11;19.20;;;18.50;;
11431;SDS011;5772;50.940;6.782;2023-03-19T12:58:45;18.73;;;17.93;;
11431;SDS011;5772;50.940;6.782;2023-03-19T13:01:18;17.80;;;17.10;;
11431;SDS011;5772;50.940;6.782;2023-03-19T13:03:47;16.60;;;15.90;;
11431;SDS011;5772;50.940;6.782;2023-03-19T13:06:15;19.50;;;18.70;;
11431;SDS011;5772;50.940;6.782;2023-03-19T13:08:44;21.27;;;20.37;;
11431;SDS011;5772;50.940;6.782;2023-03-19T13:11:13;25.13;;;24.13;;
11431;SDS011;5772;50.940;6.782;2023-03-19T13:13:41;21.97;;;21.07;;
11431;SDS011;5772;50.940;6.782;2023-03-19T13:16:13;21.43;;;20.30;;
11431;SDS011;5772;50.940;6.782;2023-03-19T13:18:45;19.97;;;19.07;;
11431;SDS011;5772;50.940;6.782;2023-03-19T13:21:20;21.60;;;20.70;;
11431;SDS011;5772;50.940;6.782;2023-03-19T13:23:47;19.63;;;18.73;;
11431;SDS011;5772;50.940;6.782;2023-03-19T13:26:15;20.00;;;18.70;;
11431;SDS011;5772;50.940;6.782;2023-03-19T13:28:55;18.43;;;17.73;;
11431;SDS011;5772;50.940;6.782;2023-03-19T13:31:26;17.53;;;16.50;;
11431;SDS011;5772;50.940;6.782;2023-03-19T13:33:52;18.57;;;17.67;;
11431;SDS011;5772;50.940;6.782;2023-03-19T13:36:26;25.93;;;24.83;;
11431;SDS011;5772;50.940;6.782;2023-03-19T13:38:52;22.90;;;21.97;;
11431;SDS011;5772;50.940;6.782;2023-03-19T13:44:24;21.53;;;20.63;;
11431;SDS011;5772;50.940;6.782;2023-03-19T13:46:54;20.20;;;19.40;;
11431;SDS011;5772;50.940;6.782;2023-03-19T13:49:21;23.50;;;22.60;;
11431;SDS011;5772;50.940;6.782;2023-03-19T13:51:48;24.77;;;23.77;;
11431;SDS011;5772;50.940;6.782;2023-03-19T13:54:14;23.63;;;22.67;;
11431;SDS011;5772;50.940;6.782;2023-03-19T13:59:51;19.70;;;18.90;;
11431;SDS011;5772;50.940;6.782;2023-03-19T14:05:16;21.90;;;21.03;;
11431;SDS011;5772;50.940;6.782;2023-03-19T14:07:43;22.07;;;21.27;;
11431;SDS011;5772;50.940;6.782;2023-03-19T14:10:13;21.13;;;20.33;;
11431;SDS011;5772;50.940;6.782;2023-03-19T14:12:41;24.30;;;23.30;;
11431;SDS011;5772;50.940;6.782;2023-03-19T14:15:13;22.93;;;22.03;;
11431;SDS011;5772;50.940;6.782;2023-03-19T14:17:40;23.67;;;22.70;;
11431;SDS011;5772;50.940;6.782;2023-03-19T14:25:58;21.27;;;20.43;;
11431;SDS011;5772;50.940;6.782;2023-03-19T14:28:31;22.33;;;21.33;;
11431;SDS011;5772;50.940;6.782;2023-03-19T14:30:59;23.57;;;22.67;;
11431;SDS011;5772;50.940;6.782;2023-03-19T14:33:28;23.67;;;22.77;;
11431;SDS011;5772;50.940;6.782;2023-03-19T14:35:56;19.97;;;19.17;;
11431;SDS011;5772;50.940;6.782;2023-03-19T14:38:23;23.77;;;22.80;;
11431;SDS011;5772;50.940;6.782;2023-03-19T14:40:52;23.23;;;22.03;;
11431;SDS011;5772;50.940;6.782;2023-03-19T14:43:22;22.17;;;21.07;;
11431;SDS011;5772;50.940;6.782;2023-03-19T14:45:58;20.70;;;19.80;;
11431;SDS011;5772;50.940;6.782;2023-03-19T14:54:22;20.70;;;19.90;;
11431;SDS011;5772;50.940;6.782;2023-03-19T14:56:49;21.07;;;20.27;;
11431;SDS011;5772;50.940;6.782;2023-03-19T14:59:15;21.80;;;20.90;;
11431;SDS011;5772;50.940;6.782;2023-03-19T15:01:43;22.40;;;21.50;;